createdAt,value
2017-12-02T00:00:51.904Z,21.80
2017-12-02T00:03:19.344Z,27.98
2017-12-02T00:05:46.800Z,21.87
2017-12-02T00:08:14.228Z,21.80
2017-12-02T00:10:41.674Z,19.83
2017-12-02T00:13:09.299Z,20.92
2017-12-02T00:15:36.736Z,21.40
2017-12-02T00:18:04.175Z,22.57
2017-12-02T00:20:31.998Z,19.97
2017-12-02T00:22:59.642Z,22.45
2017-12-02T00:25:27.063Z,23.03
2017-12-02T00:27:54.495Z,22.10
2017-12-02T00:30:22.339Z,21.60
2017-12-02T00:32:49.781Z,21.07
2017-12-02T00:35:17.218Z,22.00
2017-12-02T00:37:44.976Z,22.07
2017-12-02T00:40:12.408Z,20.53
2017-12-02T00:42:39.848Z,20.60
2017-12-02T00:45:07.696Z,20.60
2017-12-02T00:47:35.533Z,21.55
2017-12-02T00:50:02.972Z,21.75
2017-12-02T00:52:30.518Z,19.60
2017-12-02T00:54:57.951Z,22.20
2017-12-02T00:57:25.397Z,21.23
2017-12-02T00:59:53.503Z,19.10
2017-12-02T01:02:20.953Z,20.23
2017-12-02T01:04:48.395Z,22.33
2017-12-02T01:07:15.859Z,18.85
2017-12-02T01:09:43.287Z,20.27
2017-12-02T01:12:11.117Z,22.00
2017-12-02T01:14:38.650Z,19.47
2017-12-02T01:17:06.084Z,19.63
2017-12-02T01:19:33.512Z,19.70
2017-12-02T01:22:01.365Z,19.53
2017-12-02T01:24:28.775Z,22.50
2017-12-02T01:26:56.213Z,21.70
2017-12-02T01:29:23.645Z,20.37
2017-12-02T01:31:51.580Z,19.50
2017-12-02T01:34:19.012Z,20.43
2017-12-02T01:36:46.456Z,19.50
2017-12-02T01:39:14.228Z,19.33
2017-12-02T01:41:41.661Z,19.20
2017-12-02T01:44:09.092Z,20.27
2017-12-02T01:46:36.799Z,18.37
2017-12-02T01:49:04.225Z,19.33
2017-12-02T01:51:31.667Z,20.37
2017-12-02T01:53:59.124Z,16.85
2017-12-02T01:56:26.570Z,18.87
2017-12-02T01:58:54.401Z,18.50
2017-12-02T02:01:22.500Z,19.48
2017-12-02T02:03:50.331Z,18.73
2017-12-02T02:06:18.075Z,19.50
2017-12-02T02:08:45.512Z,19.97
2017-12-02T02:11:12.952Z,19.37
2017-12-02T02:13:40.437Z,18.70
2017-12-02T02:16:07.897Z,18.50
2017-12-02T02:18:35.328Z,18.23
2017-12-02T02:21:02.769Z,20.27
2017-12-02T02:23:30.196Z,75.17
2017-12-02T02:25:57.796Z,79.30
2017-12-02T02:28:25.243Z,81.87
2017-12-02T02:30:52.717Z,91.10
2017-12-02T02:33:20.163Z,50.30
2017-12-02T02:35:47.649Z,28.23
2017-12-02T02:38:15.068Z,20.83
2017-12-02T02:40:42.496Z,18.27
2017-12-02T02:43:10.323Z,19.27
2017-12-02T02:45:37.777Z,19.30
2017-12-02T02:48:05.214Z,18.27
2017-12-02T02:50:32.648Z,19.20
2017-12-02T02:53:00.088Z,19.20
2017-12-02T02:55:28.299Z,17.80
2017-12-02T02:57:55.731Z,18.43
2017-12-02T03:00:23.177Z,18.50
2017-12-02T03:02:50.611Z,18.90
2017-12-02T03:05:18.446Z,17.33
2017-12-02T03:07:45.903Z,18.15
2017-12-02T03:10:13.339Z,18.37
2017-12-02T03:12:40.776Z,18.67
2017-12-02T03:15:08.223Z,17.17
2017-12-02T03:17:35.664Z,18.60
2017-12-02T03:20:03.783Z,18.83
2017-12-02T03:22:31.220Z,18.03
2017-12-02T03:24:58.652Z,20.10
2017-12-02T03:27:26.116Z,22.60
2017-12-02T03:29:53.553Z,22.92
2017-12-02T03:32:21.001Z,25.20
2017-12-02T03:34:48.856Z,27.00
2017-12-02T03:37:16.706Z,25.77
2017-12-02T03:39:44.139Z,26.45
2017-12-02T03:42:11.606Z,27.42
2017-12-02T03:44:39.061Z,26.48
2017-12-02T03:47:06.507Z,26.75
2017-12-02T03:49:33.977Z,25.70
2017-12-02T03:52:01.425Z,26.20
2017-12-02T03:54:28.865Z,24.63
2017-12-02T03:56:56.321Z,25.12
2017-12-02T03:59:23.764Z,24.70
2017-12-02T04:01:51.197Z,26.87
2017-12-02T04:04:18.670Z,23.50
2017-12-02T04:06:46.110Z,25.35
2017-12-02T04:09:13.538Z,25.60
2017-12-02T04:11:42.209Z,25.88
2017-12-02T04:14:09.643Z,27.42
2017-12-02T04:16:37.086Z,26.17
2017-12-02T04:19:04.537Z,24.85
2017-12-02T04:21:31.976Z,25.90
2017-12-02T04:23:59.413Z,24.50
2017-12-02T04:26:26.886Z,28.20
2017-12-02T04:28:54.319Z,23.40
2017-12-02T04:31:22.144Z,22.17
2017-12-02T04:33:50.913Z,26.50
2017-12-02T04:36:18.364Z,24.05
2017-12-02T04:38:45.801Z,23.35
2017-12-02T04:41:13.256Z,21.17
2017-12-02T04:43:40.702Z,22.33
2017-12-02T04:46:08.147Z,21.65
2017-12-02T04:48:35.982Z,25.05
2017-12-02T04:51:03.821Z,21.60
2017-12-02T04:53:31.260Z,21.33
2017-12-02T04:55:58.698Z,21.62
2017-12-02T04:58:26.167Z,23.15
2017-12-02T05:00:53.600Z,22.33
2017-12-02T05:03:21.038Z,20.88
2017-12-02T05:05:48.892Z,20.67
2017-12-02T05:08:16.325Z,21.27
2017-12-02T05:10:43.769Z,20.60
2017-12-02T05:13:11.480Z,20.50
2017-12-02T05:15:38.922Z,23.15
2017-12-02T05:18:06.756Z,21.60
2017-12-02T05:20:34.209Z,20.03
2017-12-02T05:23:01.661Z,20.27
2017-12-02T05:25:29.100Z,21.60
2017-12-02T05:27:56.543Z,19.73
2017-12-02T05:30:23.989Z,19.43
2017-12-02T05:32:51.540Z,20.20
2017-12-02T05:35:18.981Z,19.30
2017-12-02T05:37:46.808Z,20.00
2017-12-02T05:40:15.174Z,20.70
2017-12-02T05:42:42.616Z,20.55
2017-12-02T05:45:10.044Z,20.03
2017-12-02T05:47:37.744Z,20.40
2017-12-02T05:50:05.189Z,20.30
2017-12-02T05:52:32.625Z,19.60
2017-12-02T05:55:00.081Z,18.93
2017-12-02T05:57:27.521Z,19.03
2017-12-02T05:59:54.960Z,21.45
2017-12-02T06:02:22.812Z,19.45
2017-12-02T06:04:50.300Z,19.67
2017-12-02T06:07:17.745Z,19.70
2017-12-02T06:09:45.868Z,21.02
2017-12-02T06:12:13.308Z,21.90
2017-12-02T06:14:40.750Z,20.90
2017-12-02T06:17:08.192Z,20.90
2017-12-02T06:19:35.648Z,19.17
2017-12-02T06:22:03.088Z,20.75
2017-12-02T06:24:30.919Z,22.33
2017-12-02T06:26:58.393Z,24.48
2017-12-02T06:29:25.833Z,22.90
2017-12-02T06:31:53.270Z,22.80
2017-12-02T06:34:20.714Z,23.80
2017-12-02T06:36:48.144Z,24.02
2017-12-02T06:39:15.581Z,22.30
2017-12-02T06:41:43.040Z,24.55
2017-12-02T06:44:10.898Z,23.27
2017-12-02T06:46:38.741Z,24.60
2017-12-02T06:49:06.196Z,24.92
2017-12-02T06:51:33.628Z,27.50
2017-12-02T06:54:01.070Z,24.58
2017-12-02T06:56:28.742Z,28.23
2017-12-02T06:58:56.173Z,25.58
2017-12-02T07:01:23.604Z,24.42
2017-12-02T07:03:51.450Z,25.33
2017-12-02T07:06:18.883Z,26.30
2017-12-02T07:08:46.320Z,24.65
2017-12-02T07:11:13.783Z,29.12
2017-12-02T07:13:41.221Z,61.63
2017-12-02T07:16:08.648Z,25.45
2017-12-02T07:18:36.116Z,27.25
2017-12-02T07:21:03.560Z,23.85
2017-12-02T07:23:31.386Z,24.20
2017-12-02T07:25:58.836Z,37.40
2017-12-02T07:28:26.283Z,62.72
2017-12-02T07:30:54.537Z,62.80
2017-12-02T07:33:22.002Z,32.35
2017-12-02T07:35:49.428Z,43.10
2017-12-02T07:38:16.873Z,74.95
2017-12-02T07:40:44.571Z,90.40
2017-12-02T07:43:12.020Z,42.20
2017-12-02T07:45:39.454Z,24.77
2017-12-02T07:48:06.901Z,24.35
2017-12-02T07:50:34.349Z,23.38
2017-12-02T07:53:01.788Z,21.92
2017-12-02T07:55:29.746Z,22.02
2017-12-02T07:57:57.189Z,20.75
2017-12-02T08:00:24.629Z,23.38
2017-12-02T08:02:52.097Z,21.67
2017-12-02T08:05:19.540Z,22.30
2017-12-02T08:07:46.989Z,20.77
2017-12-02T08:10:14.446Z,22.48
2017-12-02T08:12:41.898Z,20.75
2017-12-02T08:15:09.329Z,19.52
2017-12-02T08:17:37.212Z,19.02
2017-12-02T08:20:04.648Z,20.85
2017-12-02T08:22:32.093Z,20.05
2017-12-02T08:24:59.894Z,18.62
2017-12-02T08:27:27.333Z,18.65
2017-12-02T08:29:54.769Z,20.08
2017-12-02T08:32:22.311Z,20.27
2017-12-02T08:34:50.144Z,20.33
2017-12-02T08:37:17.580Z,22.00
2017-12-02T08:39:45.049Z,17.05
2017-12-02T08:42:12.480Z,21.00
2017-12-02T08:44:39.928Z,19.95
2017-12-02T08:47:07.393Z,20.23
2017-12-02T08:49:34.825Z,20.25
2017-12-02T08:52:02.264Z,20.00
2017-12-02T08:54:30.116Z,20.30
2017-12-02T08:56:57.952Z,22.00
2017-12-02T08:59:25.392Z,21.70
2017-12-02T09:01:52.841Z,21.40
2017-12-02T09:04:20.276Z,19.73
2017-12-02T09:06:47.711Z,19.42
2017-12-02T09:09:15.651Z,18.05
2017-12-02T09:11:43.092Z,21.77
2017-12-02T09:14:10.532Z,28.73
2017-12-02T09:16:37.994Z,20.62
2017-12-02T09:19:05.426Z,21.40
2017-12-02T09:21:32.932Z,19.20
2017-12-02T09:24:00.338Z,21.25
2017-12-02T09:26:27.777Z,23.00
2017-12-02T09:28:55.366Z,19.77
2017-12-02T09:31:22.806Z,19.25
2017-12-02T09:33:50.264Z,21.90
2017-12-02T09:36:17.705Z,20.05
2017-12-02T09:38:45.165Z,20.50
2017-12-02T09:41:12.601Z,23.40
2017-12-02T09:43:40.033Z,24.30
2017-12-02T09:46:07.873Z,23.48
2017-12-02T09:48:35.345Z,23.65
2017-12-02T09:51:02.777Z,21.48
2017-12-02T09:53:30.208Z,25.15
2017-12-02T09:55:57.749Z,21.87
2017-12-02T09:58:25.185Z,23.73
2017-12-02T10:00:53.008Z,23.52
2017-12-02T10:03:20.441Z,24.83
2017-12-02T10:05:47.887Z,22.30
2017-12-02T10:08:15.321Z,22.95
2017-12-02T10:10:42.757Z,23.55
2017-12-02T10:13:10.701Z,19.42
2017-12-02T10:15:38.141Z,19.00
2017-12-02T10:18:05.597Z,23.20
2017-12-02T10:20:33.125Z,22.30
2017-12-02T10:23:00.708Z,18.75
2017-12-02T10:25:28.143Z,20.60
2017-12-02T10:27:55.602Z,23.20
2017-12-02T10:30:23.051Z,22.05
2017-12-02T10:32:50.481Z,21.10
2017-12-02T10:35:18.312Z,22.52
2017-12-02T10:37:45.753Z,25.95
2017-12-02T10:40:13.201Z,21.70
2017-12-02T10:42:40.630Z,24.15
2017-12-02T10:45:08.060Z,24.60
2017-12-02T10:47:35.917Z,24.37
2017-12-02T10:50:03.748Z,24.98
2017-12-02T10:52:31.179Z,21.73
2017-12-02T10:54:58.708Z,24.48
2017-12-02T10:57:26.149Z,25.02
2017-12-02T10:59:53.981Z,23.12
2017-12-02T11:02:21.440Z,35.58
2017-12-02T11:04:48.881Z,24.75
2017-12-02T11:07:16.328Z,25.70
2017-12-02T11:09:43.862Z,24.42
2017-12-02T11:12:11.299Z,26.20
2017-12-02T11:14:39.124Z,25.10
2017-12-02T11:17:07.430Z,21.52
2017-12-02T11:19:35.268Z,20.60
2017-12-02T11:22:02.749Z,20.27
2017-12-02T11:24:30.332Z,24.67
2017-12-02T11:26:57.902Z,20.92
2017-12-02T11:29:25.333Z,22.25
2017-12-02T11:31:52.768Z,22.80
2017-12-02T11:34:20.613Z,21.77
2017-12-02T11:36:48.053Z,23.12
2017-12-02T11:39:15.488Z,20.90
2017-12-02T11:41:42.924Z,21.90
2017-12-02T11:44:10.714Z,26.12
2017-12-02T11:46:38.154Z,22.10
2017-12-02T11:49:05.589Z,21.92
2017-12-02T11:51:33.290Z,19.00
2017-12-02T11:54:00.730Z,21.87
2017-12-02T11:56:28.173Z,22.95
2017-12-02T11:58:55.729Z,20.80
2017-12-02T12:01:23.185Z,26.42
2017-12-02T12:03:50.621Z,22.10
2017-12-02T12:06:18.099Z,22.42
2017-12-02T12:08:45.563Z,22.35
2017-12-02T12:11:13.016Z,21.85
2017-12-02T12:13:40.451Z,19.40
2017-12-02T12:16:07.927Z,23.20
2017-12-02T12:18:35.385Z,24.60
2017-12-02T12:21:02.837Z,20.35
2017-12-02T12:23:30.282Z,19.48
2017-12-02T12:25:57.727Z,20.48
2017-12-02T12:28:25.166Z,20.45
2017-12-02T12:30:53.006Z,19.73
2017-12-02T12:33:20.446Z,20.35
2017-12-02T12:35:47.904Z,20.15
2017-12-02T12:38:15.357Z,20.12
2017-12-02T12:40:42.814Z,22.55
2017-12-02T12:43:11.088Z,20.25
2017-12-02T12:45:38.537Z,19.70
2017-12-02T12:48:05.972Z,20.02
2017-12-02T12:50:34.245Z,20.27
2017-12-02T12:53:02.552Z,22.10
2017-12-02T12:55:29.993Z,23.08
2017-12-02T12:57:57.448Z,19.55
2017-12-02T13:00:24.891Z,18.33
2017-12-02T13:02:52.559Z,19.02
2017-12-02T13:05:20.003Z,18.50
2017-12-02T13:07:47.455Z,19.15
2017-12-02T13:10:14.908Z,21.77
2017-12-02T13:12:42.349Z,20.80
2017-12-02T13:15:09.790Z,19.92
2017-12-02T13:17:37.294Z,22.55
2017-12-02T13:20:05.081Z,18.55
2017-12-02T13:22:33.340Z,19.33
2017-12-02T13:25:00.787Z,19.60
2017-12-02T13:27:28.679Z,19.95
2017-12-02T13:29:56.097Z,20.27
2017-12-02T13:32:23.599Z,21.30
2017-12-02T13:34:51.033Z,21.80
2017-12-02T13:37:18.472Z,18.90
2017-12-02T13:39:45.913Z,19.17
2017-12-02T13:42:13.356Z,21.40
2017-12-02T13:44:40.791Z,21.92
2017-12-02T13:47:08.588Z,22.15
2017-12-02T13:49:36.020Z,29.33
2017-12-02T13:52:03.465Z,22.58
2017-12-02T13:54:31.036Z,23.85
2017-12-02T13:56:58.481Z,20.35
2017-12-02T13:59:25.925Z,23.98
2017-12-02T14:01:53.796Z,23.10
2017-12-02T14:04:21.230Z,22.42
2017-12-02T14:06:49.053Z,23.65
2017-12-02T14:09:16.527Z,24.87
2017-12-02T14:11:43.956Z,24.27
2017-12-02T14:14:11.385Z,23.45
2017-12-02T14:16:38.869Z,23.77
2017-12-02T14:19:06.303Z,21.70
2017-12-02T14:21:33.747Z,23.17
2017-12-02T14:24:02.057Z,20.90
2017-12-02T14:26:29.498Z,20.65
2017-12-02T14:28:56.928Z,23.40
2017-12-02T14:31:24.620Z,21.65
2017-12-02T14:33:52.053Z,22.95
2017-12-02T14:36:19.495Z,24.05
2017-12-02T14:38:47.241Z,22.08
2017-12-02T14:41:15.082Z,23.15
2017-12-02T14:43:42.512Z,22.55
2017-12-02T14:46:09.960Z,23.50
2017-12-02T14:48:37.399Z,20.62
2017-12-02T14:51:05.900Z,22.13
2017-12-02T14:53:33.337Z,21.33
2017-12-02T14:56:00.768Z,21.12
2017-12-02T14:58:28.885Z,19.77
2017-12-02T15:00:56.326Z,23.10
2017-12-02T15:03:23.766Z,21.50
2017-12-02T15:05:51.474Z,21.60
2017-12-02T15:08:18.909Z,20.98
2017-12-02T15:10:46.353Z,21.23
2017-12-02T15:13:14.121Z,19.33
2017-12-02T15:15:41.559Z,20.65
2017-12-02T15:18:08.997Z,19.73
2017-12-02T15:20:36.525Z,21.25
2017-12-02T15:23:03.965Z,21.25
2017-12-02T15:25:31.444Z,19.23
2017-12-02T15:27:58.877Z,18.73
2017-12-02T15:30:26.323Z,20.50
2017-12-02T15:32:53.762Z,18.37
2017-12-02T15:35:21.192Z,20.50
2017-12-02T15:37:48.649Z,18.75
2017-12-02T15:40:16.077Z,20.08
2017-12-02T15:42:43.904Z,21.80
2017-12-02T15:45:11.347Z,17.70
2017-12-02T15:47:38.800Z,19.77
2017-12-02T15:50:06.227Z,18.55
2017-12-02T15:52:33.661Z,21.15
2017-12-02T15:55:01.518Z,16.95
2017-12-02T15:57:28.952Z,19.52
2017-12-02T15:59:56.385Z,17.42
2017-12-02T16:02:23.854Z,19.23
2017-12-02T16:04:51.295Z,17.15
2017-12-02T16:07:18.732Z,18.12
2017-12-02T16:09:46.449Z,18.35
2017-12-02T16:12:13.877Z,17.52
2017-12-02T16:14:41.313Z,18.12
2017-12-02T16:17:08.756Z,17.33
2017-12-02T16:19:36.189Z,18.87
2017-12-02T16:22:04.012Z,20.30
2017-12-02T16:24:31.452Z,20.20
2017-12-02T16:26:58.916Z,18.70
2017-12-02T16:29:26.352Z,18.98
2017-12-02T16:31:53.782Z,17.23
2017-12-02T16:34:21.244Z,21.37
2017-12-02T16:36:48.680Z,18.02
2017-12-02T16:39:16.517Z,21.00
2017-12-02T16:41:43.989Z,19.77
2017-12-02T16:44:11.813Z,19.83
2017-12-02T16:46:39.246Z,21.10
2017-12-02T16:49:06.789Z,21.17
2017-12-02T16:51:34.221Z,21.95
2017-12-02T16:54:02.046Z,19.48
2017-12-02T16:56:29.505Z,19.00
2017-12-02T16:58:56.941Z,19.12
2017-12-02T17:01:24.376Z,23.85
2017-12-02T17:03:51.845Z,23.00
2017-12-02T17:06:19.274Z,20.48
2017-12-02T17:08:47.102Z,22.00
2017-12-02T17:11:14.569Z,21.75
2017-12-02T17:13:42.002Z,23.35
2017-12-02T17:16:09.446Z,20.98
2017-12-02T17:18:36.900Z,20.45
2017-12-02T17:21:04.343Z,24.48
2017-12-02T17:23:31.775Z,21.12
2017-12-02T17:25:59.571Z,20.80
2017-12-02T17:28:27.005Z,21.42
2017-12-02T17:30:54.446Z,18.40
2017-12-02T17:33:21.881Z,18.85
2017-12-02T17:35:49.720Z,21.33
2017-12-02T17:38:17.158Z,20.92
2017-12-02T17:40:44.608Z,18.02
2017-12-02T17:43:12.052Z,21.98
2017-12-02T17:45:39.478Z,18.90
2017-12-02T17:48:07.342Z,19.05
2017-12-02T17:50:35.174Z,16.73
2017-12-02T17:53:02.608Z,19.87
2017-12-02T17:55:30.071Z,19.48
2017-12-02T17:57:57.499Z,17.05
2017-12-02T18:00:24.935Z,19.25
2017-12-02T18:02:52.368Z,18.67
2017-12-02T18:05:20.213Z,18.30
2017-12-02T18:07:47.653Z,17.33
2017-12-02T18:10:15.084Z,21.12
2017-12-02T18:12:42.538Z,21.95
2017-12-02T18:15:09.973Z,19.37
2017-12-02T18:17:37.400Z,18.10
2017-12-02T18:20:05.257Z,18.15
2017-12-02T18:22:32.689Z,19.30
2017-12-02T18:25:00.137Z,19.48
2017-12-02T18:27:27.840Z,20.73
2017-12-02T18:29:55.665Z,17.87
2017-12-02T18:32:23.095Z,18.90
2017-12-02T18:34:51.497Z,20.00
2017-12-02T18:37:18.933Z,21.48
2017-12-02T18:39:46.368Z,21.80
2017-12-02T18:42:13.846Z,22.15
2017-12-02T18:44:41.285Z,21.20
2017-12-02T18:47:08.712Z,19.58
2017-12-02T18:49:36.545Z,21.27
2017-12-02T18:52:03.977Z,23.27
2017-12-02T18:54:31.740Z,22.90
2017-12-02T18:56:59.176Z,20.88
2017-12-02T18:59:26.613Z,22.25
2017-12-02T19:01:54.061Z,20.02
2017-12-02T19:04:21.896Z,20.88
2017-12-02T19:06:49.336Z,19.73
2017-12-02T19:09:17.084Z,19.67
2017-12-02T19:11:44.521Z,20.83
2017-12-02T19:14:11.964Z,21.50
2017-12-02T19:16:39.517Z,19.77
2017-12-02T19:19:06.952Z,19.15
2017-12-02T19:21:34.780Z,18.30
2017-12-02T19:24:02.236Z,21.62
2017-12-02T19:26:29.673Z,18.87
2017-12-02T19:28:57.812Z,17.33
2017-12-02T19:31:25.643Z,17.10
2017-12-02T19:33:53.084Z,16.90
2017-12-02T19:36:20.527Z,16.92
2017-12-02T19:38:47.965Z,17.70
2017-12-02T19:41:15.403Z,19.37
2017-12-02T19:43:42.849Z,19.15
2017-12-02T19:46:10.685Z,17.60
2017-12-02T19:48:38.117Z,17.33
2017-12-02T19:51:05.573Z,17.83
2017-12-02T19:53:33.010Z,16.70
2017-12-02T19:56:00.437Z,20.45
2017-12-02T19:58:28.366Z,16.87
2017-12-02T20:00:55.800Z,16.27
2017-12-02T20:03:23.224Z,18.37
2017-12-02T20:05:50.673Z,18.33
2017-12-02T20:08:18.104Z,15.82
2017-12-02T20:10:45.936Z,14.05
2017-12-02T20:13:13.397Z,16.67
2017-12-02T20:15:40.829Z,17.87
2017-12-02T20:18:08.266Z,16.02
2017-12-02T20:20:35.730Z,17.50
2017-12-02T20:23:03.163Z,16.00
2017-12-02T20:25:30.600Z,17.40
2017-12-02T20:27:58.453Z,18.10
2017-12-02T20:30:25.906Z,15.60
2017-12-02T20:32:53.486Z,18.08
2017-12-02T20:35:21.313Z,17.08
2017-12-02T20:37:48.753Z,17.58
2017-12-02T20:40:16.516Z,16.80
2017-12-02T20:42:43.984Z,19.33
2017-12-02T20:45:11.430Z,19.00
2017-12-02T20:47:38.901Z,18.85
2017-12-02T20:50:06.363Z,19.12
2017-12-02T20:52:33.793Z,20.27
2017-12-02T20:55:01.236Z,19.87
2017-12-02T20:57:28.676Z,19.77
2017-12-02T20:59:56.131Z,20.88
2017-12-02T21:02:23.562Z,20.10
2017-12-02T21:04:51.395Z,20.95
2017-12-02T21:07:19.128Z,21.27
2017-12-02T21:09:46.728Z,18.75
2017-12-02T21:12:14.160Z,19.75
2017-12-02T21:14:41.612Z,22.42
2017-12-02T21:17:09.046Z,19.30
2017-12-02T21:19:36.479Z,17.05
2017-12-02T21:22:04.024Z,19.35
2017-12-02T21:24:31.862Z,20.40
2017-12-02T21:26:59.296Z,17.90
2017-12-02T21:29:26.769Z,18.50
2017-12-02T21:31:54.201Z,17.60
2017-12-02T21:34:21.641Z,18.95
2017-12-02T21:36:49.318Z,18.62
2017-12-02T21:39:16.763Z,18.02
2017-12-02T21:41:44.191Z,18.25
2017-12-02T21:44:11.884Z,21.73
2017-12-02T21:46:39.316Z,20.62
2017-12-02T21:49:06.752Z,20.17
2017-12-02T21:51:35.685Z,19.83
2017-12-02T21:54:03.174Z,19.02
2017-12-02T21:56:30.539Z,20.50
2017-12-02T21:58:58.392Z,21.85
2017-12-02T22:01:25.828Z,19.90
2017-12-02T22:03:53.260Z,20.15
2017-12-02T22:06:21.642Z,20.48
2017-12-02T22:08:49.072Z,19.30
2017-12-02T22:11:16.504Z,17.80
2017-12-02T22:13:44.361Z,18.90
2017-12-02T22:16:11.789Z,19.92
2017-12-02T22:18:39.230Z,20.58
2017-12-02T22:21:06.673Z,20.58
2017-12-02T22:23:34.108Z,19.70
2017-12-02T22:26:01.548Z,21.50
2017-12-02T22:28:29.443Z,18.45
2017-12-02T22:30:56.855Z,19.42
2017-12-02T22:33:24.684Z,17.70
2017-12-02T22:35:52.164Z,20.15
2017-12-02T22:38:19.596Z,20.35
2017-12-02T22:40:47.050Z,19.80
2017-12-02T22:43:14.517Z,20.05
2017-12-02T22:45:41.949Z,18.52
2017-12-02T22:48:09.376Z,22.40
2017-12-02T22:50:36.812Z,20.27
2017-12-02T22:53:04.241Z,19.65
2017-12-02T22:55:31.694Z,21.33
2017-12-02T22:57:59.120Z,20.75
2017-12-02T23:00:26.557Z,19.48
2017-12-02T23:02:54.024Z,21.42
2017-12-02T23:05:21.452Z,22.08
2017-12-02T23:07:48.886Z,19.45
2017-12-02T23:10:16.725Z,21.98
2017-12-02T23:12:44.156Z,21.67
2017-12-02T23:15:11.820Z,18.85
2017-12-02T23:17:39.249Z,20.45
2017-12-02T23:20:06.695Z,20.70
2017-12-02T23:22:34.904Z,22.70
2017-12-02T23:25:02.348Z,22.50
2017-12-02T23:27:29.786Z,24.02
2017-12-02T23:29:57.251Z,19.95
2017-12-02T23:32:24.680Z,18.80
2017-12-02T23:34:52.502Z,23.92
2017-12-02T23:37:20.248Z,22.98
2017-12-02T23:39:47.690Z,24.25
2017-12-02T23:42:15.117Z,23.52
2017-12-02T23:44:42.960Z,22.10
2017-12-02T23:47:10.415Z,24.73
2017-12-02T23:49:38.754Z,23.85
2017-12-02T23:52:06.190Z,24.10
2017-12-02T23:54:33.620Z,22.65
2017-12-02T23:57:01.483Z,23.42
2017-12-02T23:59:29.316Z,25.85
